createdAt,value
2018-10-17T00:00:58.976Z,21.97
2018-10-17T00:03:27.630Z,19.77
2018-10-17T00:05:56.294Z,18.67
2018-10-17T00:08:24.920Z,17.70
2018-10-17T00:10:53.590Z,18.17
2018-10-17T00:13:22.206Z,17.10
2018-10-17T00:15:50.858Z,15.77
2018-10-17T00:18:19.488Z,13.70
2018-10-17T00:20:48.162Z,14.70
2018-10-17T00:23:16.883Z,15.83
2018-10-17T00:25:45.441Z,15.53
2018-10-17T00:28:14.088Z,14.27
2018-10-17T00:30:42.744Z,14.77
2018-10-17T00:33:11.362Z,13.80
2018-10-17T00:35:40.017Z,13.97
2018-10-17T00:38:08.690Z,14.03
2018-10-17T00:40:37.333Z,15.50
2018-10-17T00:43:06.049Z,15.30
2018-10-17T00:45:34.617Z,15.57
2018-10-17T00:48:03.275Z,16.93
2018-10-17T00:50:31.923Z,16.07
2018-10-17T00:53:00.597Z,13.90
2018-10-17T00:55:29.247Z,14.83
2018-10-17T00:57:57.879Z,13.23
2018-10-17T01:00:26.592Z,14.10
2018-10-17T01:02:55.229Z,13.07
2018-10-17T01:05:23.869Z,13.07
2018-10-17T01:07:52.533Z,13.23
2018-10-17T01:10:21.229Z,12.27
2018-10-17T01:12:49.880Z,13.50
2018-10-17T01:15:18.540Z,13.07
2018-10-17T01:17:47.206Z,12.10
2018-10-17T01:20:15.858Z,13.10
2018-10-17T01:22:44.510Z,12.47
2018-10-17T01:25:13.204Z,12.87
2018-10-17T01:27:41.832Z,12.67
2018-10-17T01:30:10.452Z,12.17
2018-10-17T01:32:39.094Z,12.57
2018-10-17T01:35:07.917Z,12.80
2018-10-17T01:37:36.550Z,12.53
2018-10-17T01:40:05.760Z,12.63
2018-10-17T01:42:34.409Z,12.30
2018-10-17T01:45:03.046Z,12.50
2018-10-17T01:47:31.722Z,12.03
2018-10-17T01:50:00.361Z,13.17
2018-10-17T01:52:29.000Z,12.43
2018-10-17T01:54:57.658Z,12.50
2018-10-17T01:57:26.283Z,13.30
2018-10-17T01:59:54.944Z,11.87
2018-10-17T02:02:23.604Z,12.33
2018-10-17T02:04:52.268Z,12.33
2018-10-17T02:07:20.916Z,12.23
2018-10-17T02:09:49.564Z,12.60
2018-10-17T02:12:18.199Z,12.30
2018-10-17T02:14:46.840Z,11.77
2018-10-17T02:17:15.553Z,12.50
2018-10-17T02:19:44.153Z,12.07
2018-10-17T02:22:12.876Z,12.50
2018-10-17T02:24:41.539Z,12.30
2018-10-17T02:27:10.193Z,12.40
2018-10-17T02:29:38.847Z,12.13
2018-10-17T02:32:07.487Z,11.77
2018-10-17T02:34:40.389Z,12.10
2018-10-17T02:37:09.075Z,12.23
2018-10-17T02:39:37.838Z,12.60
2018-10-17T02:42:06.313Z,11.93
2018-10-17T02:44:34.965Z,12.07
2018-10-17T02:47:03.747Z,11.90
2018-10-17T02:49:32.322Z,12.93
2018-10-17T02:52:00.959Z,11.73
2018-10-17T02:54:29.630Z,12.23
2018-10-17T02:56:58.287Z,12.70
2018-10-17T02:59:26.948Z,12.33
2018-10-17T03:01:55.585Z,12.27
2018-10-17T03:04:24.255Z,12.07
2018-10-17T03:06:52.967Z,12.33
2018-10-17T03:09:22.556Z,12.47
2018-10-17T03:11:51.208Z,12.00
2018-10-17T03:14:19.868Z,13.70
2018-10-17T03:16:48.536Z,11.80
2018-10-17T03:19:17.266Z,12.93
2018-10-17T03:21:45.865Z,12.63
2018-10-17T03:24:14.500Z,11.67
2018-10-17T03:26:43.202Z,12.67
2018-10-17T03:29:11.894Z,12.30
2018-10-17T03:31:40.496Z,11.83
2018-10-17T03:34:09.178Z,12.97
2018-10-17T03:36:38.000Z,11.97
2018-10-17T03:39:08.587Z,12.00
2018-10-17T03:41:37.388Z,13.17
2018-10-17T03:44:06.134Z,13.13
2018-10-17T03:46:34.866Z,12.53
2018-10-17T03:49:03.643Z,12.67
2018-10-17T03:51:32.310Z,13.90
2018-10-17T03:54:00.975Z,12.93
2018-10-17T03:56:29.699Z,12.97
2018-10-17T03:58:58.359Z,12.87
2018-10-17T04:01:27.003Z,13.20
2018-10-17T04:03:55.700Z,12.73
2018-10-17T04:06:24.384Z,12.00
2018-10-17T04:08:53.155Z,12.60
2018-10-17T04:11:21.811Z,12.87
2018-10-17T04:13:50.441Z,14.07
2018-10-17T04:16:19.114Z,12.67
2018-10-17T04:18:47.751Z,12.87
2018-10-17T04:21:16.417Z,13.03
2018-10-17T04:23:45.079Z,13.20
2018-10-17T04:26:13.737Z,12.70
2018-10-17T04:28:42.448Z,13.57
2018-10-17T04:31:11.145Z,14.17
2018-10-17T04:33:39.765Z,12.87
2018-10-17T04:36:08.490Z,12.23
2018-10-17T04:38:37.069Z,12.57
2018-10-17T04:41:05.761Z,13.70
2018-10-17T04:43:34.401Z,13.90
2018-10-17T04:46:03.067Z,14.20
2018-10-17T04:48:31.723Z,14.23
2018-10-17T04:51:00.371Z,14.30
2018-10-17T04:53:29.038Z,13.87
2018-10-17T04:55:57.684Z,13.60
2018-10-17T04:58:26.406Z,13.70
2018-10-17T05:00:55.149Z,16.17
2018-10-17T05:03:23.816Z,14.70
2018-10-17T05:05:52.567Z,14.73
2018-10-17T05:08:21.217Z,15.13
2018-10-17T05:10:49.869Z,15.10
2018-10-17T05:13:18.530Z,15.33
2018-10-17T05:15:47.254Z,14.47
2018-10-17T05:18:15.908Z,14.60
2018-10-17T05:20:44.592Z,14.63
2018-10-17T05:23:13.310Z,14.60
2018-10-17T05:25:41.886Z,14.70
2018-10-17T05:28:10.558Z,13.93
2018-10-17T05:30:39.253Z,14.57
2018-10-17T05:33:08.828Z,14.63
2018-10-17T05:35:37.500Z,14.60
2018-10-17T05:38:06.678Z,15.03
2018-10-17T05:40:35.350Z,14.00
2018-10-17T05:43:04.337Z,13.93
2018-10-17T05:45:32.943Z,14.37
2018-10-17T05:48:01.602Z,13.97
2018-10-17T05:50:30.274Z,15.00
2018-10-17T05:52:58.935Z,14.90
2018-10-17T05:55:27.572Z,14.53
2018-10-17T05:57:56.484Z,16.70
2018-10-17T06:00:25.161Z,14.87
2018-10-17T06:02:53.821Z,16.30
2018-10-17T06:05:22.453Z,15.37
2018-10-17T06:07:51.097Z,16.60
2018-10-17T06:10:19.840Z,15.77
2018-10-17T06:12:48.373Z,15.10
2018-10-17T06:15:17.062Z,15.23
2018-10-17T06:17:45.712Z,14.50
2018-10-17T06:20:14.402Z,15.57
2018-10-17T06:22:43.049Z,14.00
2018-10-17T06:25:11.768Z,13.93
2018-10-17T06:27:40.390Z,15.43
2018-10-17T06:30:10.202Z,15.07
2018-10-17T06:32:39.186Z,15.53
2018-10-17T06:35:08.300Z,14.77
2018-10-17T06:37:37.306Z,14.80
2018-10-17T06:40:06.640Z,15.33
2018-10-17T06:42:35.289Z,14.67
2018-10-17T06:45:04.551Z,16.10
2018-10-17T06:47:33.199Z,15.57
2018-10-17T06:50:01.858Z,14.50
2018-10-17T06:52:30.502Z,15.93
2018-10-17T06:54:59.186Z,15.63
2018-10-17T06:57:27.972Z,15.77
2018-10-17T06:59:56.630Z,15.87
2018-10-17T07:02:25.291Z,16.00
2018-10-17T07:04:53.936Z,16.13
2018-10-17T07:07:22.581Z,16.10
2018-10-17T07:09:51.375Z,15.90
2018-10-17T07:12:20.036Z,16.77
2018-10-17T07:14:48.692Z,17.37
2018-10-17T07:17:17.364Z,16.40
2018-10-17T07:19:46.120Z,16.83
2018-10-17T07:22:14.797Z,17.37
2018-10-17T07:24:43.450Z,16.93
2018-10-17T07:27:12.128Z,17.10
2018-10-17T07:29:40.952Z,17.33
2018-10-17T07:32:09.512Z,17.50
2018-10-17T07:34:38.175Z,18.40
2018-10-17T07:37:07.159Z,17.50
2018-10-17T07:39:35.886Z,17.93
2018-10-17T07:42:04.571Z,19.27
2018-10-17T07:44:33.170Z,18.13
2018-10-17T07:47:01.869Z,18.77
2018-10-17T07:49:30.558Z,18.67
2018-10-17T07:51:59.214Z,19.37
2018-10-17T07:54:27.852Z,18.73
2018-10-17T07:56:56.575Z,19.07
2018-10-17T07:59:25.441Z,19.00
2018-10-17T08:01:54.210Z,20.03
2018-10-17T08:04:22.949Z,18.67
2018-10-17T08:06:51.622Z,19.57
2018-10-17T08:09:20.350Z,20.80
2018-10-17T08:11:49.036Z,19.63
2018-10-17T08:14:18.376Z,20.30
2018-10-17T08:16:46.945Z,18.97
2018-10-17T08:19:15.624Z,20.07
2018-10-17T08:21:44.300Z,20.60
2018-10-17T08:24:13.064Z,21.23
2018-10-17T08:26:41.658Z,19.53
2018-10-17T08:29:10.380Z,18.57
2018-10-17T08:31:39.137Z,24.83
2018-10-17T08:34:07.896Z,23.07
2018-10-17T08:36:36.799Z,22.17
2018-10-17T08:39:07.392Z,20.17
2018-10-17T08:41:36.127Z,21.60
2018-10-17T08:44:04.886Z,21.73
2018-10-17T08:46:33.503Z,22.80
2018-10-17T08:49:02.244Z,22.70
2018-10-17T08:51:30.883Z,30.33
2018-10-17T08:53:59.565Z,29.33
2018-10-17T08:56:28.233Z,27.80
2018-10-17T08:58:56.928Z,32.70
2018-10-17T09:01:25.610Z,24.27
2018-10-17T09:03:54.271Z,24.40
2018-10-17T09:06:22.938Z,25.20
2018-10-17T09:08:51.708Z,32.47
2018-10-17T09:11:20.451Z,23.63
2018-10-17T09:13:49.223Z,22.90
2018-10-17T09:16:17.998Z,22.23
2018-10-17T09:18:46.524Z,21.03
2018-10-17T09:21:15.535Z,22.67
2018-10-17T09:23:43.873Z,21.83
2018-10-17T09:26:12.551Z,22.53
2018-10-17T09:28:41.205Z,21.83
2018-10-17T09:31:09.859Z,21.53
2018-10-17T09:33:38.517Z,20.53
2018-10-17T09:36:07.229Z,20.67
2018-10-17T09:38:35.821Z,20.40
2018-10-17T09:41:04.484Z,20.37
2018-10-17T09:43:33.155Z,22.77
2018-10-17T09:46:01.802Z,17.90
2018-10-17T09:48:30.464Z,19.67
2018-10-17T09:50:59.229Z,18.80
2018-10-17T09:53:28.014Z,20.47
2018-10-17T09:55:56.595Z,18.47
2018-10-17T09:58:25.307Z,18.50
2018-10-17T10:00:59.328Z,18.87
2018-10-17T10:03:28.004Z,18.03
2018-10-17T10:05:56.705Z,18.73
2018-10-17T10:08:25.460Z,19.23
2018-10-17T10:10:54.191Z,17.33
2018-10-17T10:13:22.788Z,16.93
2018-10-17T10:15:51.495Z,17.97
2018-10-17T10:18:20.089Z,17.77
2018-10-17T10:20:48.757Z,16.73
2018-10-17T10:23:17.533Z,17.67
2018-10-17T10:25:46.094Z,16.43
2018-10-17T10:28:14.803Z,17.07
2018-10-17T10:30:43.460Z,17.80
2018-10-17T10:33:12.132Z,16.90
2018-10-17T10:35:40.778Z,16.90
2018-10-17T10:38:09.457Z,18.07
2018-10-17T10:40:38.147Z,17.53
2018-10-17T10:43:06.808Z,17.30
2018-10-17T10:45:35.548Z,16.67
2018-10-17T10:48:04.122Z,16.30
2018-10-17T10:50:32.787Z,16.40
2018-10-17T10:53:01.563Z,14.93
2018-10-17T10:55:30.166Z,17.07
2018-10-17T10:57:58.907Z,16.07
2018-10-17T11:00:27.505Z,20.30
2018-10-17T11:02:56.182Z,16.60
2018-10-17T11:05:25.015Z,18.60
2018-10-17T11:07:53.611Z,18.30
2018-10-17T11:10:22.276Z,18.40
2018-10-17T11:12:50.922Z,18.03
2018-10-17T11:15:19.583Z,18.43
2018-10-17T11:17:48.220Z,18.43
2018-10-17T11:20:16.936Z,18.23
2018-10-17T11:22:45.595Z,16.80
2018-10-17T11:25:14.439Z,17.30
2018-10-17T11:27:43.287Z,16.70
2018-10-17T11:30:12.477Z,15.07
2018-10-17T11:32:41.161Z,14.53
2018-10-17T11:35:10.623Z,15.43
2018-10-17T11:37:39.311Z,15.03
2018-10-17T11:40:08.245Z,15.07
2018-10-17T11:42:36.915Z,15.30
2018-10-17T11:45:06.027Z,14.63
2018-10-17T11:47:34.785Z,14.23
2018-10-17T11:50:04.269Z,14.80
2018-10-17T11:52:32.925Z,14.00
2018-10-17T11:55:01.594Z,15.17
2018-10-17T11:57:30.236Z,15.00
2018-10-17T11:59:58.917Z,14.40
2018-10-17T12:02:27.648Z,13.90
2018-10-17T12:04:56.570Z,14.70
2018-10-17T12:07:25.058Z,14.83
2018-10-17T12:09:53.754Z,15.50
2018-10-17T12:12:22.459Z,15.57
2018-10-17T12:14:51.133Z,14.87
2018-10-17T12:17:19.725Z,15.37
2018-10-17T12:19:48.428Z,14.67
2018-10-17T12:22:17.068Z,15.60
2018-10-17T12:24:45.748Z,14.77
2018-10-17T12:27:21.082Z,15.07
2018-10-17T12:29:49.794Z,15.37
2018-10-17T12:32:18.533Z,13.97
2018-10-17T12:34:47.339Z,15.13
2018-10-17T12:37:16.200Z,15.30
2018-10-17T12:39:45.061Z,15.30
2018-10-17T12:42:13.806Z,15.10
2018-10-17T12:44:42.586Z,13.90
2018-10-17T12:47:11.389Z,14.50
2018-10-17T12:49:40.055Z,14.80
2018-10-17T12:52:08.764Z,14.70
2018-10-17T12:54:37.515Z,14.83
2018-10-17T12:57:06.574Z,15.30
2018-10-17T12:59:35.416Z,14.50
2018-10-17T13:02:04.067Z,14.93
2018-10-17T13:04:32.778Z,14.97
2018-10-17T13:07:01.466Z,15.73
2018-10-17T13:09:30.108Z,16.00
2018-10-17T13:11:58.752Z,15.93
2018-10-17T13:14:27.423Z,16.80
2018-10-17T13:16:56.195Z,16.10
2018-10-17T13:19:25.276Z,16.60
2018-10-17T13:21:53.937Z,17.53
2018-10-17T13:24:22.576Z,16.40
2018-10-17T13:26:51.233Z,15.63
2018-10-17T13:29:19.877Z,16.93
2018-10-17T13:31:48.527Z,17.53
2018-10-17T13:34:17.208Z,21.77
2018-10-17T13:36:45.846Z,16.33
2018-10-17T13:39:14.927Z,17.00
2018-10-17T13:41:43.702Z,16.37
2018-10-17T13:44:12.477Z,17.00
2018-10-17T13:46:41.245Z,16.50
2018-10-17T13:49:09.999Z,19.80
2018-10-17T13:51:38.608Z,17.17
2018-10-17T13:54:07.293Z,18.97
2018-10-17T13:56:35.965Z,18.23
2018-10-17T13:59:04.676Z,18.70
2018-10-17T14:01:33.377Z,16.17
2018-10-17T14:04:02.061Z,17.70
2018-10-17T14:06:30.737Z,16.43
2018-10-17T14:08:59.557Z,17.17
2018-10-17T14:11:28.237Z,15.97
2018-10-17T14:13:56.893Z,15.97
2018-10-17T14:16:25.576Z,16.07
2018-10-17T14:18:54.251Z,15.67
2018-10-17T14:21:22.940Z,15.27
2018-10-17T14:23:51.640Z,16.00
2018-10-17T14:26:20.275Z,16.03
2018-10-17T14:28:49.001Z,15.90
2018-10-17T14:31:17.653Z,15.43
2018-10-17T14:33:46.348Z,15.53
2018-10-17T14:36:15.110Z,14.83
2018-10-17T14:38:43.708Z,15.67
2018-10-17T14:41:12.388Z,16.87
2018-10-17T14:43:41.012Z,16.80
2018-10-17T14:46:09.694Z,16.20
2018-10-17T14:48:38.334Z,16.37
2018-10-17T14:51:07.054Z,17.13
2018-10-17T14:53:35.656Z,16.00
2018-10-17T14:56:04.379Z,15.10
2018-10-17T14:58:33.020Z,15.53
2018-10-17T15:01:01.735Z,15.53
2018-10-17T15:03:30.380Z,14.40
2018-10-17T15:05:59.320Z,15.53
2018-10-17T15:08:27.974Z,17.03
2018-10-17T15:10:56.871Z,17.37
2018-10-17T15:13:25.368Z,14.67
2018-10-17T15:15:54.089Z,14.87
2018-10-17T15:18:22.749Z,16.87
2018-10-17T15:20:51.593Z,16.10
2018-10-17T15:23:20.239Z,17.83
2018-10-17T15:25:49.155Z,15.10
2018-10-17T15:28:18.223Z,14.57
2018-10-17T15:30:46.987Z,17.13
2018-10-17T15:33:15.641Z,17.63
2018-10-17T15:35:44.471Z,19.00
2018-10-17T15:38:13.202Z,20.00
2018-10-17T15:40:41.976Z,17.60
2018-10-17T15:43:10.692Z,17.57
2018-10-17T15:45:39.307Z,16.63
2018-10-17T15:48:08.004Z,16.33
2018-10-17T15:50:36.672Z,16.63
2018-10-17T15:53:05.634Z,16.63
2018-10-17T15:55:34.572Z,16.47
2018-10-17T15:58:03.255Z,16.17
2018-10-17T16:00:31.898Z,15.20
2018-10-17T16:03:00.584Z,16.57
2018-10-17T16:05:30.064Z,17.03
2018-10-17T16:07:59.048Z,18.50
2018-10-17T16:10:27.840Z,17.40
2018-10-17T16:12:56.512Z,18.60
2018-10-17T16:15:25.226Z,17.87
2018-10-17T16:17:54.023Z,17.13
2018-10-17T16:20:22.677Z,18.40
2018-10-17T16:22:51.438Z,18.47
2018-10-17T16:25:20.456Z,17.03
2018-10-17T16:27:49.120Z,17.27
2018-10-17T16:30:17.877Z,17.60
2018-10-17T16:32:46.665Z,17.07
2018-10-17T16:35:15.357Z,17.17
2018-10-17T16:37:44.143Z,17.43
2018-10-17T16:40:12.841Z,16.47
2018-10-17T16:42:41.832Z,16.70
2018-10-17T16:45:11.277Z,17.43
2018-10-17T16:47:40.349Z,17.83
2018-10-17T16:50:09.000Z,21.40
2018-10-17T16:52:37.620Z,20.40
2018-10-17T16:55:07.346Z,20.67
2018-10-17T16:57:36.384Z,22.80
2018-10-17T17:00:06.767Z,23.57
2018-10-17T17:02:35.546Z,25.57
2018-10-17T17:05:04.490Z,24.60
2018-10-17T17:07:33.143Z,26.70
2018-10-17T17:10:01.829Z,24.80
2018-10-17T17:12:30.493Z,24.47
2018-10-17T17:14:59.201Z,26.10
2018-10-17T17:17:27.813Z,25.50
2018-10-17T17:19:56.510Z,23.73
2018-10-17T17:22:25.170Z,25.37
2018-10-17T17:24:53.805Z,28.13
2018-10-17T17:27:22.494Z,26.87
2018-10-17T17:29:51.506Z,27.47
2018-10-17T17:32:20.105Z,26.80
2018-10-17T17:34:49.008Z,23.87
2018-10-17T17:37:17.684Z,24.00
2018-10-17T17:39:46.425Z,23.57
2018-10-17T17:42:15.074Z,26.50
2018-10-17T17:44:43.738Z,24.80
2018-10-17T17:47:12.446Z,23.57
2018-10-17T17:49:41.118Z,23.97
2018-10-17T17:52:09.851Z,24.60
2018-10-17T17:54:38.474Z,25.83
2018-10-17T17:57:07.458Z,24.83
2018-10-17T17:59:36.448Z,23.83
2018-10-17T18:02:05.413Z,22.50
2018-10-17T18:04:34.086Z,23.00
2018-10-17T18:07:03.259Z,22.77
2018-10-17T18:09:32.024Z,21.40
2018-10-17T18:12:00.742Z,23.70
2018-10-17T18:14:29.393Z,21.93
2018-10-17T18:16:58.038Z,21.73
2018-10-17T18:19:26.712Z,21.80
2018-10-17T18:21:55.395Z,23.70
2018-10-17T18:24:24.106Z,23.13
2018-10-17T18:26:52.756Z,23.60
2018-10-17T18:29:21.459Z,24.73
2018-10-17T18:31:50.151Z,24.30
2018-10-17T18:34:18.846Z,25.67
2018-10-17T18:36:48.187Z,23.83
2018-10-17T18:39:17.033Z,22.60
2018-10-17T18:41:45.667Z,23.17
2018-10-17T18:44:14.339Z,21.67
2018-10-17T18:46:42.995Z,19.90
2018-10-17T18:49:11.711Z,18.27
2018-10-17T18:51:40.367Z,19.10
2018-10-17T18:54:09.155Z,18.50
2018-10-17T18:56:37.815Z,17.57
2018-10-17T18:59:06.695Z,17.90
2018-10-17T19:01:35.430Z,17.47
2018-10-17T19:04:03.991Z,17.40
2018-10-17T19:06:32.751Z,18.40
2018-10-17T19:09:01.615Z,17.23
2018-10-17T19:11:30.285Z,17.13
2018-10-17T19:13:58.947Z,21.37
2018-10-17T19:16:27.747Z,18.57
2018-10-17T19:18:56.461Z,19.90
2018-10-17T19:21:25.153Z,20.13
2018-10-17T19:23:53.811Z,18.20
2018-10-17T19:26:22.679Z,18.60
2018-10-17T19:28:51.347Z,20.17
2018-10-17T19:31:20.049Z,20.40
2018-10-17T19:33:48.762Z,18.80
2018-10-17T19:36:17.461Z,27.97
2018-10-17T19:38:46.097Z,22.80
2018-10-17T19:41:14.795Z,20.53
2018-10-17T19:43:43.456Z,23.03
2018-10-17T19:46:12.133Z,22.53
2018-10-17T19:48:41.189Z,21.87
2018-10-17T19:51:09.883Z,22.47
2018-10-17T19:53:38.490Z,22.27
2018-10-17T19:56:07.318Z,20.47
2018-10-17T19:58:35.966Z,20.60
2018-10-17T20:01:04.770Z,19.17
2018-10-17T20:03:33.457Z,19.80
2018-10-17T20:06:02.145Z,20.27
2018-10-17T20:08:30.928Z,19.93
2018-10-17T20:10:59.622Z,19.47
2018-10-17T20:13:28.260Z,19.90
2018-10-17T20:15:56.921Z,19.33
2018-10-17T20:18:25.620Z,22.07
2018-10-17T20:20:54.323Z,21.40
2018-10-17T20:23:22.971Z,21.90
2018-10-17T20:25:51.656Z,22.27
2018-10-17T20:28:20.288Z,23.20
2018-10-17T20:30:49.003Z,21.80
2018-10-17T20:33:17.676Z,20.87
2018-10-17T20:35:46.528Z,21.40
2018-10-17T20:38:15.156Z,20.80
2018-10-17T20:40:43.831Z,22.33
2018-10-17T20:43:12.494Z,25.07
2018-10-17T20:45:41.177Z,22.47
2018-10-17T20:48:09.861Z,21.03
2018-10-17T20:50:38.554Z,22.20
2018-10-17T20:53:07.208Z,22.13
2018-10-17T20:55:35.855Z,20.10
2018-10-17T20:58:04.798Z,21.43
2018-10-17T21:00:33.418Z,21.07
2018-10-17T21:03:02.095Z,21.37
2018-10-17T21:05:30.749Z,21.67
2018-10-17T21:07:59.455Z,21.70
2018-10-17T21:10:28.105Z,20.73
2018-10-17T21:12:56.755Z,21.00
2018-10-17T21:15:25.411Z,20.63
2018-10-17T21:17:54.081Z,20.70
2018-10-17T21:20:22.774Z,20.77
2018-10-17T21:22:51.412Z,19.40
2018-10-17T21:25:20.068Z,20.00
2018-10-17T21:27:48.735Z,21.30
2018-10-17T21:30:17.786Z,19.77
2018-10-17T21:32:46.458Z,20.20
2018-10-17T21:35:15.125Z,21.50
2018-10-17T21:37:43.776Z,19.70
2018-10-17T21:40:13.725Z,20.10
2018-10-17T21:42:42.404Z,19.77
2018-10-17T21:45:11.076Z,19.77
2018-10-17T21:47:39.768Z,20.63
2018-10-17T21:50:09.136Z,19.97
2018-10-17T21:52:37.744Z,21.00
2018-10-17T21:55:06.406Z,22.33
2018-10-17T21:57:35.314Z,20.03
2018-10-17T22:00:04.686Z,20.60
2018-10-17T22:02:33.342Z,20.83
2018-10-17T22:05:02.019Z,21.23
2018-10-17T22:07:30.665Z,18.97
2018-10-17T22:09:59.334Z,19.93
2018-10-17T22:12:28.010Z,22.07
2018-10-17T22:14:56.676Z,21.47
2018-10-17T22:17:28.576Z,21.10
2018-10-17T22:19:57.375Z,19.60
2018-10-17T22:22:26.492Z,20.27
2018-10-17T22:24:55.902Z,19.97
2018-10-17T22:27:24.554Z,20.57
2018-10-17T22:29:53.457Z,20.70
2018-10-17T22:32:22.077Z,20.60
2018-10-17T22:34:50.732Z,21.30
2018-10-17T22:37:19.372Z,20.87
2018-10-17T22:39:48.028Z,20.47
2018-10-17T22:42:16.686Z,20.93
2018-10-17T22:44:45.342Z,21.00
2018-10-17T22:47:13.985Z,20.17
2018-10-17T22:49:42.657Z,20.93
2018-10-17T22:52:11.287Z,20.13
2018-10-17T22:54:39.952Z,20.30
2018-10-17T22:57:08.636Z,20.57
2018-10-17T22:59:37.315Z,20.40
2018-10-17T23:02:06.076Z,19.83
2018-10-17T23:04:34.627Z,19.87
2018-10-17T23:07:03.293Z,19.27
2018-10-17T23:09:31.935Z,19.37
2018-10-17T23:12:00.592Z,20.33
2018-10-17T23:14:29.248Z,20.43
2018-10-17T23:16:57.906Z,20.83
2018-10-17T23:19:26.551Z,19.67
2018-10-17T23:21:55.222Z,19.57
2018-10-17T23:24:23.862Z,20.23
2018-10-17T23:26:52.616Z,20.40
2018-10-17T23:29:21.410Z,20.57
2018-10-17T23:31:50.084Z,18.80
2018-10-17T23:34:18.740Z,19.20
2018-10-17T23:36:47.390Z,20.03
2018-10-17T23:39:16.060Z,19.10
2018-10-17T23:41:44.716Z,19.80
2018-10-17T23:44:13.433Z,19.77
2018-10-17T23:46:42.006Z,20.03
2018-10-17T23:49:10.648Z,19.60
2018-10-17T23:51:39.324Z,18.63
2018-10-17T23:54:08.041Z,19.93
2018-10-17T23:56:36.629Z,20.17
2018-10-17T23:59:05.370Z,19.43
